»·PEaware :: SKY35 KFHR-KORS

SKY35 :: KFHR-KORS

FLIGHT INFORMATION

Flight Status: Arrived
Operator:
Sky High Charters
More flights by this operator :: More flights under this callsign
Pilot: Jake W. (30069)
Aircraft: BEECH AIRCRAFT BONANZA
(BE35)
More flights by this aircraft type
Origin: KFHR Friday Harbor
United States
Destination: KORS Orcas Island
United States
More flights between these airports :: More routes between these airports
Route: FHR APDON
File this flight plan on PilotEdge
Remarks:
Altitude:
(Current/Filed)
5,000ft
Speed:
(Current/Filed)
150kts
Departed: 11-Aug-20 06:52 PM
Arrived: 11-Aug-20 07:23 PM
Distance/Time
Traveled:
12nm/0:30
Distance/Time
To Go:
Arrived

Flight Plot

Page will automatically refresh every two minutes.

Flight plan parsing failed; only flown route is shown


Map Options




Map Legend


Flown Route
Filed Route
Departure Airport
Arrival Airport
Navaid (VOR, NDB)
Fix

Horizontal Profiles

Position Reports

Time Latitude Longitude Heading Altitude Ground
Speed
11-Aug-20 18:30 48.526187 -123.026051 95 117ft 0kts
11-Aug-20 18:31 48.526187 -123.026051 95 117ft 0kts
11-Aug-20 18:32 48.526187 -123.026051 95 117ft 0kts
11-Aug-20 18:33 48.526187 -123.026051 95 117ft 0kts
11-Aug-20 18:34 48.526187 -123.026051 95 117ft 0kts
11-Aug-20 18:35 48.526187 -123.026051 95 117ft 0kts
11-Aug-20 18:36 48.526187 -123.026051 95 117ft 0kts
11-Aug-20 18:37 48.526187 -123.026051 95 117ft 0kts
11-Aug-20 18:38 48.526187 -123.026051 95 117ft 0kts
11-Aug-20 18:39 48.526187 -123.026051 95 117ft 0kts
11-Aug-20 18:40 48.526187 -123.026051 95 117ft 0kts
11-Aug-20 18:41 48.526187 -123.026051 95 117ft 0kts
11-Aug-20 18:44 48.526460 -123.026254 87 119ft 0kts
11-Aug-20 18:45 48.526460 -123.026254 87 119ft 0kts
11-Aug-20 18:46 48.526460 -123.026254 87 119ft 0kts
11-Aug-20 18:47 48.526460 -123.026254 87 119ft 0kts
11-Aug-20 18:48 48.526569 -123.025380 89 116ft 0kts
11-Aug-20 18:49 48.526569 -123.025380 89 116ft 0kts
11-Aug-20 18:50 48.526472 -123.024727 166 113ft 0kts
11-Aug-20 18:51 48.522613 -123.024437 176 100ft 81kts
11-Aug-20 18:52 48.497482 -123.024484 186 608ft 92kts
11-Aug-20 18:53 48.474359 -123.024218 191 1211ft 75kts
11-Aug-20 18:54 48.467009 -123.001250 28 1844ft 79kts
11-Aug-20 18:55 48.485183 -123.003578 0 2488ft 77kts
11-Aug-20 18:56 48.503662 -123.008573 302 3089ft 64kts
11-Aug-20 18:57 48.520975 -123.015865 3 3656ft 77kts
11-Aug-20 18:58 48.542159 -123.006153 11 4224ft 83kts
11-Aug-20 18:59 48.564349 -122.992901 17 4735ft 89kts
11-Aug-20 19:00 48.589107 -122.975357 20 5037ft 121kts
11-Aug-20 19:01 48.625002 -122.949359 22 5023ft 157kts
11-Aug-20 19:02 48.668195 -122.918218 23 4473ft 192kts
11-Aug-20 19:03 48.717784 -122.882280 24 4004ft 190kts
11-Aug-20 19:04 48.763810 -122.848902 24 4009ft 179kts
11-Aug-20 19:05 48.808252 -122.816655 23 4013ft 175kts
11-Aug-20 19:06 48.852178 -122.784729 23 4015ft 174kts
11-Aug-20 19:07 48.895544 -122.753136 23 4018ft 172kts
11-Aug-20 19:08 48.938300 -122.751509 339 3289ft 153kts
11-Aug-20 19:09 48.979017 -122.753536 41 2290ft 157kts
11-Aug-20 19:10 48.974488 -122.707599 178 2022ft 109kts
11-Aug-20 19:11 48.947625 -122.721765 202 2019ft 100kts
11-Aug-20 19:12 48.921341 -122.737036 201 2018ft 102kts
11-Aug-20 19:13 48.895889 -122.756786 217 1925ft 106kts
11-Aug-20 19:14 48.871576 -122.780649 210 1916ft 103kts
11-Aug-20 19:15 48.846992 -122.802584 210 1915ft 102kts
11-Aug-20 19:16 48.822386 -122.824339 210 1913ft 102kts
11-Aug-20 19:17 48.797802 -122.846046 210 1911ft 101kts
11-Aug-20 19:18 48.775624 -122.865609 209 1587ft 85kts
11-Aug-20 19:19 48.753728 -122.884931 209 1052ft 94kts
11-Aug-20 19:21 48.730953 -122.904970 209 477ft 94kts
11-Aug-20 19:22 48.710501 -122.910546 184 21ft 57kts
11-Aug-20 19:23 48.704402 -122.909854 87 37ft 0kts
11-Aug-20 19:24 48.704402 -122.909847 86 37ft 0kts
11-Aug-20 19:25 48.704402 -122.909847 86 37ft 0kts

Navigation Log

Ident Type
Flight plan parsing failed, navigation log unavailable